sensor_id;sensor_type;location;lat;lon;timestamp;P1;durP1;ratioP1;P2;durP2;ratioP2
17228;SDS011;8731;50.364;8.958;2023-07-20T00:01:12;5.17;;;2.70;;
17228;SDS011;8731;50.364;8.958;2023-07-20T00:05:34;2.57;;;1.80;;
17228;SDS011;8731;50.364;8.958;2023-07-20T00:09:57;3.43;;;1.90;;
17228;SDS011;8731;50.364;8.958;2023-07-20T00:14:19;4.30;;;2.20;;
17228;SDS011;8731;50.364;8.958;2023-07-20T00:18:44;3.67;;;1.80;;
17228;SDS011;8731;50.364;8.958;2023-07-20T00:23:06;4.73;;;1.90;;
17228;SDS011;8731;50.364;8.958;2023-07-20T00:27:29;4.13;;;2.30;;
17228;SDS011;8731;50.364;8.958;2023-07-20T00:31:51;4.80;;;1.77;;
17228;SDS011;8731;50.364;8.958;2023-07-20T00:36:16;3.50;;;1.90;;
17228;SDS011;8731;50.364;8.958;2023-07-20T00:40:39;4.17;;;1.87;;
17228;SDS011;8731;50.364;8.958;2023-07-20T00:45:02;4.63;;;2.10;;
17228;SDS011;8731;50.364;8.958;2023-07-20T00:49:27;3.43;;;2.33;;
17228;SDS011;8731;50.364;8.958;2023-07-20T00:53:53;3.67;;;2.20;;
17228;SDS011;8731;50.364;8.958;2023-07-20T00:58:16;3.90;;;2.00;;
17228;SDS011;8731;50.364;8.958;2023-07-20T01:02:39;3.30;;;2.27;;
17228;SDS011;8731;50.364;8.958;2023-07-20T01:07:02;3.90;;;1.90;;
17228;SDS011;8731;50.364;8.958;2023-07-20T01:11:43;5.93;;;2.40;;
17228;SDS011;8731;50.364;8.958;2023-07-20T01:16:19;3.77;;;2.10;;
17228;SDS011;8731;50.364;8.958;2023-07-20T01:20:41;5.03;;;2.73;;
17228;SDS011;8731;50.364;8.958;2023-07-20T01:25:11;5.47;;;2.50;;
17228;SDS011;8731;50.364;8.958;2023-07-20T01:29:59;5.93;;;2.40;;
17228;SDS011;8731;50.364;8.958;2023-07-20T01:34:38;5.10;;;2.37;;
17228;SDS011;8731;50.364;8.958;2023-07-20T01:39:03;3.80;;;2.10;;
17228;SDS011;8731;50.364;8.958;2023-07-20T01:43:29;5.27;;;2.10;;
17228;SDS011;8731;50.364;8.958;2023-07-20T01:47:52;6.27;;;3.10;;
17228;SDS011;8731;50.364;8.958;2023-07-20T01:52:16;2.73;;;2.03;;
17228;SDS011;8731;50.364;8.958;2023-07-20T01:56:38;4.40;;;2.60;;
17228;SDS011;8731;50.364;8.958;2023-07-20T02:01:01;4.17;;;2.33;;
17228;SDS011;8731;50.364;8.958;2023-07-20T02:05:23;4.27;;;2.57;;
17228;SDS011;8731;50.364;8.958;2023-07-20T02:09:48;3.23;;;2.40;;
17228;SDS011;8731;50.364;8.958;2023-07-20T02:14:10;3.90;;;2.50;;
17228;SDS011;8731;50.364;8.958;2023-07-20T02:18:33;6.37;;;2.50;;
17228;SDS011;8731;50.364;8.958;2023-07-20T02:22:56;5.17;;;2.50;;
17228;SDS011;8731;50.364;8.958;2023-07-20T02:27:20;5.00;;;2.43;;
17228;SDS011;8731;50.364;8.958;2023-07-20T02:31:43;3.93;;;2.23;;
17228;SDS011;8731;50.364;8.958;2023-07-20T02:36:05;5.27;;;2.73;;
17228;SDS011;8731;50.364;8.958;2023-07-20T02:40:29;5.60;;;2.60;;
17228;SDS011;8731;50.364;8.958;2023-07-20T02:44:53;4.87;;;2.47;;
17228;SDS011;8731;50.364;8.958;2023-07-20T02:49:17;3.23;;;2.43;;
17228;SDS011;8731;50.364;8.958;2023-07-20T02:53:39;5.20;;;2.57;;
17228;SDS011;8731;50.364;8.958;2023-07-20T02:58:02;4.00;;;2.17;;
17228;SDS011;8731;50.364;8.958;2023-07-20T03:02:26;3.97;;;2.73;;
17228;SDS011;8731;50.364;8.958;2023-07-20T03:06:53;5.37;;;2.30;;
17228;SDS011;8731;50.364;8.958;2023-07-20T03:11:16;4.87;;;2.57;;
17228;SDS011;8731;50.364;8.958;2023-07-20T03:15:38;6.70;;;2.73;;
17228;SDS011;8731;50.364;8.958;2023-07-20T03:20:04;3.03;;;2.37;;
17228;SDS011;8731;50.364;8.958;2023-07-20T03:24:30;3.47;;;2.10;;
17228;SDS011;8731;50.364;8.958;2023-07-20T03:28:53;4.90;;;2.50;;
17228;SDS011;8731;50.364;8.958;2023-07-20T03:33:16;5.40;;;2.90;;
17228;SDS011;8731;50.364;8.958;2023-07-20T03:37:40;5.67;;;2.80;;
17228;SDS011;8731;50.364;8.958;2023-07-20T03:42:03;6.33;;;3.10;;
17228;SDS011;8731;50.364;8.958;2023-07-20T03:46:28;3.83;;;2.80;;
17228;SDS011;8731;50.364;8.958;2023-07-20T03:50:52;4.63;;;3.17;;
17228;SDS011;8731;50.364;8.958;2023-07-20T03:55:16;4.50;;;2.70;;
17228;SDS011;8731;50.364;8.958;2023-07-20T03:59:39;3.60;;;2.80;;
17228;SDS011;8731;50.364;8.958;2023-07-20T04:04:08;3.23;;;2.60;;
17228;SDS011;8731;50.364;8.958;2023-07-20T04:08:31;3.70;;;2.57;;
17228;SDS011;8731;50.364;8.958;2023-07-20T04:12:55;7.83;;;3.00;;
17228;SDS011;8731;50.364;8.958;2023-07-20T04:17:17;4.17;;;2.67;;
17228;SDS011;8731;50.364;8.958;2023-07-20T04:21:40;5.10;;;2.90;;
17228;SDS011;8731;50.364;8.958;2023-07-20T04:26:03;4.97;;;2.83;;
17228;SDS011;8731;50.364;8.958;2023-07-20T04:30:28;5.07;;;2.77;;
17228;SDS011;8731;50.364;8.958;2023-07-20T04:34:53;5.07;;;3.37;;
17228;SDS011;8731;50.364;8.958;2023-07-20T04:39:16;6.00;;;2.90;;
17228;SDS011;8731;50.364;8.958;2023-07-20T04:43:40;6.60;;;2.83;;
17228;SDS011;8731;50.364;8.958;2023-07-20T04:48:09;6.70;;;3.17;;
17228;SDS011;8731;50.364;8.958;2023-07-20T04:52:36;4.97;;;2.90;;
17228;SDS011;8731;50.364;8.958;2023-07-20T04:57:02;4.97;;;3.00;;
17228;SDS011;8731;50.364;8.958;2023-07-20T05:01:33;6.03;;;2.97;;
17228;SDS011;8731;50.364;8.958;2023-07-20T05:05:57;5.60;;;3.30;;
17228;SDS011;8731;50.364;8.958;2023-07-20T05:10:20;4.57;;;2.73;;
17228;SDS011;8731;50.364;8.958;2023-07-20T05:14:42;4.17;;;3.00;;
17228;SDS011;8731;50.364;8.958;2023-07-20T05:19:06;5.30;;;3.10;;
17228;SDS011;8731;50.364;8.958;2023-07-20T05:23:34;5.27;;;2.80;;
17228;SDS011;8731;50.364;8.958;2023-07-20T05:27:56;6.07;;;3.63;;
17228;SDS011;8731;50.364;8.958;2023-07-20T05:32:19;5.67;;;3.27;;
17228;SDS011;8731;50.364;8.958;2023-07-20T05:36:41;4.13;;;2.80;;
17228;SDS011;8731;50.364;8.958;2023-07-20T05:41:05;4.57;;;3.00;;
17228;SDS011;8731;50.364;8.958;2023-07-20T05:45:30;4.33;;;3.10;;
17228;SDS011;8731;50.364;8.958;2023-07-20T05:49:53;3.33;;;2.93;;
17228;SDS011;8731;50.364;8.958;2023-07-20T05:54:15;5.43;;;3.43;;
17228;SDS011;8731;50.364;8.958;2023-07-20T05:58:40;4.40;;;2.83;;
17228;SDS011;8731;50.364;8.958;2023-07-20T06:03:03;3.93;;;2.07;;
17228;SDS011;8731;50.364;8.958;2023-07-20T06:07:25;4.23;;;2.13;;
17228;SDS011;8731;50.364;8.958;2023-07-20T06:11:48;5.03;;;2.07;;
17228;SDS011;8731;50.364;8.958;2023-07-20T06:16:12;5.63;;;2.30;;
17228;SDS011;8731;50.364;8.958;2023-07-20T06:20:34;4.90;;;2.20;;
17228;SDS011;8731;50.364;8.958;2023-07-20T06:24:57;4.30;;;2.30;;
17228;SDS011;8731;50.364;8.958;2023-07-20T06:29:20;3.17;;;2.33;;
17228;SDS011;8731;50.364;8.958;2023-07-20T06:33:44;3.77;;;2.43;;
17228;SDS011;8731;50.364;8.958;2023-07-20T06:38:07;3.17;;;2.63;;
17228;SDS011;8731;50.364;8.958;2023-07-20T06:42:29;5.47;;;2.60;;
17228;SDS011;8731;50.364;8.958;2023-07-20T06:46:53;3.33;;;2.50;;
17228;SDS011;8731;50.364;8.958;2023-07-20T06:51:17;7.27;;;2.83;;
17228;SDS011;8731;50.364;8.958;2023-07-20T06:55:41;3.87;;;2.70;;
17228;SDS011;8731;50.364;8.958;2023-07-20T07:00:04;6.90;;;2.80;;
17228;SDS011;8731;50.364;8.958;2023-07-20T07:04:28;3.50;;;2.37;;
17228;SDS011;8731;50.364;8.958;2023-07-20T07:08:53;3.10;;;2.20;;
17228;SDS011;8731;50.364;8.958;2023-07-20T07:13:15;3.97;;;2.00;;
17228;SDS011;8731;50.364;8.958;2023-07-20T07:17:38;3.03;;;2.20;;
17228;SDS011;8731;50.364;8.958;2023-07-20T07:22:00;3.80;;;2.43;;
17228;SDS011;8731;50.364;8.958;2023-07-20T07:26:24;5.03;;;2.03;;
17228;SDS011;8731;50.364;8.958;2023-07-20T07:30:46;3.87;;;2.20;;
17228;SDS011;8731;50.364;8.958;2023-07-20T07:35:11;3.60;;;2.23;;
17228;SDS011;8731;50.364;8.958;2023-07-20T07:39:33;4.07;;;2.20;;
17228;SDS011;8731;50.364;8.958;2023-07-20T07:43:57;4.00;;;3.27;;
17228;SDS011;8731;50.364;8.958;2023-07-20T07:48:19;5.87;;;3.33;;
17228;SDS011;8731;50.364;8.958;2023-07-20T07:52:42;6.17;;;3.47;;
17228;SDS011;8731;50.364;8.958;2023-07-20T07:57:05;3.50;;;2.50;;
17228;SDS011;8731;50.364;8.958;2023-07-20T08:01:29;4.73;;;2.70;;
17228;SDS011;8731;50.364;8.958;2023-07-20T08:05:53;4.17;;;3.23;;
17228;SDS011;8731;50.364;8.958;2023-07-20T08:10:19;3.30;;;2.50;;
17228;SDS011;8731;50.364;8.958;2023-07-20T08:14:43;3.47;;;2.40;;
17228;SDS011;8731;50.364;8.958;2023-07-20T08:19:07;3.90;;;2.27;;
17228;SDS011;8731;50.364;8.958;2023-07-20T08:23:29;3.80;;;2.70;;
17228;SDS011;8731;50.364;8.958;2023-07-20T08:27:52;3.73;;;2.37;;
17228;SDS011;8731;50.364;8.958;2023-07-20T08:32:14;3.33;;;2.10;;
17228;SDS011;8731;50.364;8.958;2023-07-20T08:36:39;5.50;;;2.50;;
17228;SDS011;8731;50.364;8.958;2023-07-20T08:41:02;3.43;;;2.13;;
17228;SDS011;8731;50.364;8.958;2023-07-20T08:45:24;3.13;;;2.10;;
17228;SDS011;8731;50.364;8.958;2023-07-20T08:49:50;2.77;;;2.10;;
17228;SDS011;8731;50.364;8.958;2023-07-20T08:54:17;3.37;;;2.10;;
17228;SDS011;8731;50.364;8.958;2023-07-20T08:58:40;3.83;;;2.10;;
17228;SDS011;8731;50.364;8.958;2023-07-20T09:03:06;3.93;;;2.10;;
17228;SDS011;8731;50.364;8.958;2023-07-20T09:07:29;5.63;;;2.50;;
17228;SDS011;8731;50.364;8.958;2023-07-20T09:11:57;4.80;;;2.90;;
17228;SDS011;8731;50.364;8.958;2023-07-20T09:16:19;3.27;;;2.00;;
17228;SDS011;8731;50.364;8.958;2023-07-20T09:20:42;3.97;;;2.50;;
17228;SDS011;8731;50.364;8.958;2023-07-20T09:25:05;4.63;;;2.37;;
17228;SDS011;8731;50.364;8.958;2023-07-20T09:29:33;6.17;;;2.43;;
17228;SDS011;8731;50.364;8.958;2023-07-20T09:33:55;4.87;;;2.47;;
17228;SDS011;8731;50.364;8.958;2023-07-20T09:38:18;3.53;;;2.07;;
17228;SDS011;8731;50.364;8.958;2023-07-20T09:42:40;2.93;;;2.13;;
17228;SDS011;8731;50.364;8.958;2023-07-20T09:47:05;8.23;;;2.97;;
17228;SDS011;8731;50.364;8.958;2023-07-20T09:51:27;3.43;;;1.87;;
17228;SDS011;8731;50.364;8.958;2023-07-20T09:55:51;3.07;;;1.90;;
17228;SDS011;8731;50.364;8.958;2023-07-20T10:00:15;4.50;;;2.23;;
17228;SDS011;8731;50.364;8.958;2023-07-20T10:04:42;4.13;;;1.90;;
17228;SDS011;8731;50.364;8.958;2023-07-20T10:09:05;2.97;;;2.00;;
17228;SDS011;8731;50.364;8.958;2023-07-20T10:13:30;2.20;;;1.77;;
17228;SDS011;8731;50.364;8.958;2023-07-20T10:17:59;2.77;;;1.90;;
17228;SDS011;8731;50.364;8.958;2023-07-20T10:22:35;2.37;;;1.70;;
17228;SDS011;8731;50.364;8.958;2023-07-20T10:27:00;3.53;;;1.60;;
17228;SDS011;8731;50.364;8.958;2023-07-20T10:31:25;3.13;;;1.65;;
17228;SDS011;8731;50.364;8.958;2023-07-20T10:35:50;3.50;;;1.17;;
17228;SDS011;8731;50.364;8.958;2023-07-20T10:40:25;1.85;;;1.30;;
17228;SDS011;8731;50.364;8.958;2023-07-20T10:44:55;2.13;;;1.20;;
17228;SDS011;8731;50.364;8.958;2023-07-20T10:49:18;3.47;;;1.80;;
17228;SDS011;8731;50.364;8.958;2023-07-20T10:53:47;2.35;;;1.40;;
17228;SDS011;8731;50.364;8.958;2023-07-20T10:58:13;3.92;;;1.30;;
17228;SDS011;8731;50.364;8.958;2023-07-20T11:02:44;1.98;;;1.27;;
17228;SDS011;8731;50.364;8.958;2023-07-20T11:07:09;1.30;;;1.20;;
17228;SDS011;8731;50.364;8.958;2023-07-20T11:11:36;1.73;;;1.20;;
17228;SDS011;8731;50.364;8.958;2023-07-20T11:16:05;2.83;;;1.35;;
17228;SDS011;8731;50.364;8.958;2023-07-20T11:20:27;1.55;;;1.00;;
17228;SDS011;8731;50.364;8.958;2023-07-20T11:24:50;1.10;;;1.00;;
17228;SDS011;8731;50.364;8.958;2023-07-20T11:29:18;8.75;;;1.83;;
17228;SDS011;8731;50.364;8.958;2023-07-20T11:33:44;1.52;;;1.10;;
17228;SDS011;8731;50.364;8.958;2023-07-20T11:38:07;1.27;;;1.10;;
17228;SDS011;8731;50.364;8.958;2023-07-20T11:42:30;1.83;;;1.20;;
17228;SDS011;8731;50.364;8.958;2023-07-20T11:47:00;3.25;;;1.10;;
17228;SDS011;8731;50.364;8.958;2023-07-20T11:51:25;1.23;;;1.00;;
17228;SDS011;8731;50.364;8.958;2023-07-20T11:55:50;1.30;;;1.00;;
17228;SDS011;8731;50.364;8.958;2023-07-20T12:00:15;3.93;;;1.20;;
17228;SDS011;8731;50.364;8.958;2023-07-20T12:04:39;2.63;;;1.23;;
17228;SDS011;8731;50.364;8.958;2023-07-20T12:09:03;2.83;;;1.27;;
17228;SDS011;8731;50.364;8.958;2023-07-20T12:13:35;2.57;;;1.10;;
17228;SDS011;8731;50.364;8.958;2023-07-20T12:17:59;2.73;;;1.40;;
17228;SDS011;8731;50.364;8.958;2023-07-20T12:22:24;2.70;;;1.10;;
17228;SDS011;8731;50.364;8.958;2023-07-20T12:26:49;4.83;;;1.13;;
17228;SDS011;8731;50.364;8.958;2023-07-20T12:31:19;2.13;;;1.10;;
17228;SDS011;8731;50.364;8.958;2023-07-20T12:35:42;2.40;;;1.27;;
17228;SDS011;8731;50.364;8.958;2023-07-20T12:40:06;1.80;;;1.20;;
17228;SDS011;8731;50.364;8.958;2023-07-20T12:44:32;1.70;;;1.20;;
17228;SDS011;8731;50.364;8.958;2023-07-20T12:48:55;2.53;;;1.30;;
17228;SDS011;8731;50.364;8.958;2023-07-20T12:53:17;1.47;;;1.10;;
17228;SDS011;8731;50.364;8.958;2023-07-20T12:57:40;1.47;;;1.30;;
17228;SDS011;8731;50.364;8.958;2023-07-20T13:02:05;1.67;;;1.20;;
17228;SDS011;8731;50.364;8.958;2023-07-20T13:06:27;1.53;;;1.40;;
17228;SDS011;8731;50.364;8.958;2023-07-20T13:10:50;2.60;;;1.67;;
17228;SDS011;8731;50.364;8.958;2023-07-20T13:15:13;8.10;;;4.67;;
17228;SDS011;8731;50.364;8.958;2023-07-20T13:19:38;1.83;;;1.23;;
17228;SDS011;8731;50.364;8.958;2023-07-20T13:24:03;3.13;;;1.47;;
17228;SDS011;8731;50.364;8.958;2023-07-20T13:28:28;3.73;;;1.73;;
17228;SDS011;8731;50.364;8.958;2023-07-20T13:32:51;6.63;;;2.13;;
17228;SDS011;8731;50.364;8.958;2023-07-20T13:37:17;4.77;;;2.30;;
17228;SDS011;8731;50.364;8.958;2023-07-20T13:41:39;4.77;;;2.20;;
17228;SDS011;8731;50.364;8.958;2023-07-20T13:46:02;1.87;;;1.67;;
17228;SDS011;8731;50.364;8.958;2023-07-20T13:50:24;4.63;;;2.40;;
17228;SDS011;8731;50.364;8.958;2023-07-20T13:54:50;4.67;;;2.27;;
17228;SDS011;8731;50.364;8.958;2023-07-20T13:59:12;2.50;;;2.30;;
17228;SDS011;8731;50.364;8.958;2023-07-20T14:03:34;3.53;;;2.10;;
17228;SDS011;8731;50.364;8.958;2023-07-20T14:07:58;3.17;;;2.20;;
17228;SDS011;8731;50.364;8.958;2023-07-20T14:12:23;2.57;;;2.13;;
17228;SDS011;8731;50.364;8.958;2023-07-20T14:16:46;4.17;;;2.37;;
17228;SDS011;8731;50.364;8.958;2023-07-20T14:21:08;4.17;;;1.67;;
17228;SDS011;8731;50.364;8.958;2023-07-20T14:25:31;4.20;;;1.87;;
17228;SDS011;8731;50.364;8.958;2023-07-20T14:29:56;3.30;;;2.13;;
17228;SDS011;8731;50.364;8.958;2023-07-20T14:34:20;4.40;;;2.40;;
17228;SDS011;8731;50.364;8.958;2023-07-20T14:38:43;5.33;;;2.23;;
17228;SDS011;8731;50.364;8.958;2023-07-20T14:43:06;4.47;;;1.90;;
17228;SDS011;8731;50.364;8.958;2023-07-20T14:47:30;1.90;;;1.80;;
17228;SDS011;8731;50.364;8.958;2023-07-20T14:51:55;9.13;;;2.50;;
17228;SDS011;8731;50.364;8.958;2023-07-20T14:56:18;5.50;;;2.23;;
17228;SDS011;8731;50.364;8.958;2023-07-20T15:00:41;2.90;;;2.13;;
17228;SDS011;8731;50.364;8.958;2023-07-20T15:05:07;4.78;;;2.20;;
17228;SDS011;8731;50.364;8.958;2023-07-20T15:09:31;2.90;;;1.83;;
17228;SDS011;8731;50.364;8.958;2023-07-20T15:13:53;2.53;;;2.10;;
17228;SDS011;8731;50.364;8.958;2023-07-20T15:18:16;4.27;;;2.33;;
17228;SDS011;8731;50.364;8.958;2023-07-20T15:22:41;4.10;;;2.07;;
17228;SDS011;8731;50.364;8.958;2023-07-20T15:27:04;3.40;;;2.10;;
17228;SDS011;8731;50.364;8.958;2023-07-20T15:31:28;3.17;;;2.60;;
17228;SDS011;8731;50.364;8.958;2023-07-20T15:35:50;10.00;;;3.40;;
17228;SDS011;8731;50.364;8.958;2023-07-20T15:40:15;12.93;;;2.57;;
17228;SDS011;8731;50.364;8.958;2023-07-20T15:44:38;3.67;;;2.20;;
17228;SDS011;8731;50.364;8.958;2023-07-20T15:49:00;6.33;;;2.20;;
17228;SDS011;8731;50.364;8.958;2023-07-20T15:53:23;3.63;;;2.40;;
17228;SDS011;8731;50.364;8.958;2023-07-20T15:57:47;8.07;;;3.00;;
17228;SDS011;8731;50.364;8.958;2023-07-20T16:02:09;5.60;;;2.27;;
17228;SDS011;8731;50.364;8.958;2023-07-20T16:06:32;3.37;;;2.10;;
17228;SDS011;8731;50.364;8.958;2023-07-20T16:10:55;4.00;;;2.00;;
17228;SDS011;8731;50.364;8.958;2023-07-20T16:15:21;6.60;;;2.20;;
17228;SDS011;8731;50.364;8.958;2023-07-20T16:19:44;5.57;;;1.97;;
17228;SDS011;8731;50.364;8.958;2023-07-20T16:24:07;2.60;;;2.13;;
17228;SDS011;8731;50.364;8.958;2023-07-20T16:28:30;2.87;;;1.90;;
17228;SDS011;8731;50.364;8.958;2023-07-20T16:32:54;4.13;;;1.83;;
17228;SDS011;8731;50.364;8.958;2023-07-20T16:37:17;3.20;;;2.03;;
17228;SDS011;8731;50.364;8.958;2023-07-20T16:41:39;3.23;;;2.10;;
17228;SDS011;8731;50.364;8.958;2023-07-20T16:46:02;3.87;;;2.27;;
17228;SDS011;8731;50.364;8.958;2023-07-20T16:50:28;2.70;;;2.27;;
17228;SDS011;8731;50.364;8.958;2023-07-20T16:54:50;2.67;;;2.30;;
17228;SDS011;8731;50.364;8.958;2023-07-20T16:59:13;2.23;;;1.87;;
17228;SDS011;8731;50.364;8.958;2023-07-20T17:03:37;3.23;;;2.30;;
17228;SDS011;8731;50.364;8.958;2023-07-20T17:08:01;3.20;;;1.80;;
17228;SDS011;8731;50.364;8.958;2023-07-20T17:12:23;4.57;;;2.50;;
17228;SDS011;8731;50.364;8.958;2023-07-20T17:16:46;6.10;;;3.13;;
17228;SDS011;8731;50.364;8.958;2023-07-20T17:21:12;2.60;;;1.97;;
17228;SDS011;8731;50.364;8.958;2023-07-20T17:25:37;2.33;;;2.13;;
17228;SDS011;8731;50.364;8.958;2023-07-20T17:30:04;3.27;;;1.90;;
17228;SDS011;8731;50.364;8.958;2023-07-20T17:34:28;3.10;;;1.80;;
17228;SDS011;8731;50.364;8.958;2023-07-20T17:38:51;4.13;;;2.00;;
17228;SDS011;8731;50.364;8.958;2023-07-20T17:43:15;2.57;;;1.70;;
17228;SDS011;8731;50.364;8.958;2023-07-20T17:47:37;3.90;;;1.97;;
17228;SDS011;8731;50.364;8.958;2023-07-20T17:52:00;3.80;;;2.00;;
17228;SDS011;8731;50.364;8.958;2023-07-20T17:56:23;5.30;;;2.10;;
17228;SDS011;8731;50.364;8.958;2023-07-20T18:00:47;7.63;;;2.33;;
17228;SDS011;8731;50.364;8.958;2023-07-20T18:05:09;2.40;;;1.90;;
17228;SDS011;8731;50.364;8.958;2023-07-20T18:09:33;2.53;;;1.97;;
17228;SDS011;8731;50.364;8.958;2023-07-20T18:13:56;2.20;;;2.00;;
17228;SDS011;8731;50.364;8.958;2023-07-20T18:18:22;2.93;;;2.13;;
17228;SDS011;8731;50.364;8.958;2023-07-20T18:22:46;5.90;;;2.07;;
17228;SDS011;8731;50.364;8.958;2023-07-20T18:27:09;2.30;;;2.10;;
17228;SDS011;8731;50.364;8.958;2023-07-20T18:31:32;2.30;;;2.10;;
17228;SDS011;8731;50.364;8.958;2023-07-20T18:35:56;2.53;;;2.27;;
17228;SDS011;8731;50.364;8.958;2023-07-20T18:40:20;4.67;;;2.20;;
17228;SDS011;8731;50.364;8.958;2023-07-20T18:44:43;2.33;;;2.13;;
17228;SDS011;8731;50.364;8.958;2023-07-20T18:49:06;3.10;;;2.10;;
17228;SDS011;8731;50.364;8.958;2023-07-20T18:53:30;3.37;;;2.20;;
17228;SDS011;8731;50.364;8.958;2023-07-20T18:57:52;2.57;;;2.37;;
17228;SDS011;8731;50.364;8.958;2023-07-20T19:02:17;5.50;;;2.03;;
17228;SDS011;8731;50.364;8.958;2023-07-20T19:06:40;4.87;;;2.47;;
17228;SDS011;8731;50.364;8.958;2023-07-20T19:11:04;3.03;;;2.10;;
17228;SDS011;8731;50.364;8.958;2023-07-20T19:15:29;3.47;;;2.40;;
17228;SDS011;8731;50.364;8.958;2023-07-20T19:19:52;2.87;;;2.10;;
17228;SDS011;8731;50.364;8.958;2023-07-20T19:24:14;2.20;;;2.00;;
17228;SDS011;8731;50.364;8.958;2023-07-20T19:28:38;2.37;;;2.17;;
17228;SDS011;8731;50.364;8.958;2023-07-20T19:33:00;2.10;;;2.00;;
17228;SDS011;8731;50.364;8.958;2023-07-20T19:37:23;5.77;;;2.50;;
17228;SDS011;8731;50.364;8.958;2023-07-20T19:41:46;6.77;;;2.57;;
17228;SDS011;8731;50.364;8.958;2023-07-20T19:46:10;24.67;;;4.40;;
17228;SDS011;8731;50.364;8.958;2023-07-20T19:50:32;34.13;;;5.67;;
17228;SDS011;8731;50.364;8.958;2023-07-20T19:54:55;25.10;;;4.37;;
17228;SDS011;8731;50.364;8.958;2023-07-20T19:59:18;5.30;;;2.27;;
17228;SDS011;8731;50.364;8.958;2023-07-20T20:03:42;4.77;;;2.20;;
17228;SDS011;8731;50.364;8.958;2023-07-20T20:08:04;15.50;;;3.80;;
17228;SDS011;8731;50.364;8.958;2023-07-20T20:12:28;29.17;;;4.67;;
17228;SDS011;8731;50.364;8.958;2023-07-20T20:16:51;12.30;;;3.30;;
17228;SDS011;8731;50.364;8.958;2023-07-20T20:21:17;14.03;;;4.00;;
17228;SDS011;8731;50.364;8.958;2023-07-20T20:25:42;13.87;;;3.03;;
17228;SDS011;8731;50.364;8.958;2023-07-20T20:30:05;5.47;;;2.80;;
17228;SDS011;8731;50.364;8.958;2023-07-20T20:34:29;4.83;;;2.50;;
17228;SDS011;8731;50.364;8.958;2023-07-20T20:38:55;3.23;;;2.43;;
17228;SDS011;8731;50.364;8.958;2023-07-20T20:43:18;4.57;;;2.10;;
17228;SDS011;8731;50.364;8.958;2023-07-20T20:47:41;4.20;;;2.13;;
17228;SDS011;8731;50.364;8.958;2023-07-20T20:52:05;3.80;;;2.10;;
17228;SDS011;8731;50.364;8.958;2023-07-20T20:56:29;2.73;;;1.80;;
17228;SDS011;8731;50.364;8.958;2023-07-20T21:00:52;3.73;;;2.23;;
17228;SDS011;8731;50.364;8.958;2023-07-20T21:05:19;2.50;;;2.27;;
17228;SDS011;8731;50.364;8.958;2023-07-20T21:09:43;2.00;;;1.90;;
17228;SDS011;8731;50.364;8.958;2023-07-20T21:14:07;2.50;;;2.03;;
17228;SDS011;8731;50.364;8.958;2023-07-20T21:18:30;1.70;;;1.60;;
17228;SDS011;8731;50.364;8.958;2023-07-20T21:22:53;2.50;;;1.80;;
17228;SDS011;8731;50.364;8.958;2023-07-20T21:27:16;3.00;;;1.90;;
17228;SDS011;8731;50.364;8.958;2023-07-20T21:31:40;3.07;;;2.07;;
17228;SDS011;8731;50.364;8.958;2023-07-20T21:36:04;2.87;;;2.23;;
17228;SDS011;8731;50.364;8.958;2023-07-20T21:40:27;1.93;;;1.70;;
17228;SDS011;8731;50.364;8.958;2023-07-20T21:44:49;2.20;;;1.60;;
17228;SDS011;8731;50.364;8.958;2023-07-20T21:49:13;18.30;;;2.97;;
17228;SDS011;8731;50.364;8.958;2023-07-20T21:53:37;6.50;;;2.47;;
17228;SDS011;8731;50.364;8.958;2023-07-20T21:57:59;7.50;;;2.50;;
17228;SDS011;8731;50.364;8.958;2023-07-20T22:02:21;3.73;;;2.00;;
17228;SDS011;8731;50.364;8.958;2023-07-20T22:06:46;1.70;;;1.43;;
17228;SDS011;8731;50.364;8.958;2023-07-20T22:11:08;3.40;;;2.00;;
17228;SDS011;8731;50.364;8.958;2023-07-20T22:15:31;1.87;;;1.73;;
17228;SDS011;8731;50.364;8.958;2023-07-20T22:19:54;3.60;;;1.70;;
17228;SDS011;8731;50.364;8.958;2023-07-20T22:24:18;3.33;;;1.53;;
17228;SDS011;8731;50.364;8.958;2023-07-20T22:28:40;2.47;;;1.93;;
17228;SDS011;8731;50.364;8.958;2023-07-20T22:33:03;4.57;;;2.03;;
17228;SDS011;8731;50.364;8.958;2023-07-20T22:37:26;3.77;;;2.00;;
17228;SDS011;8731;50.364;8.958;2023-07-20T22:41:50;9.47;;;2.60;;
17228;SDS011;8731;50.364;8.958;2023-07-20T22:46:12;4.70;;;2.27;;
17228;SDS011;8731;50.364;8.958;2023-07-20T22:50:37;9.87;;;2.40;;
17228;SDS011;8731;50.364;8.958;2023-07-20T22:55:01;12.07;;;3.00;;
17228;SDS011;8731;50.364;8.958;2023-07-20T22:59:26;6.00;;;2.67;;
17228;SDS011;8731;50.364;8.958;2023-07-20T23:03:48;8.87;;;2.57;;
17228;SDS011;8731;50.364;8.958;2023-07-20T23:08:12;7.17;;;2.30;;
17228;SDS011;8731;50.364;8.958;2023-07-20T23:12:35;3.37;;;2.07;;
17228;SDS011;8731;50.364;8.958;2023-07-20T23:16:59;2.53;;;1.80;;
17228;SDS011;8731;50.364;8.958;2023-07-20T23:21:23;2.37;;;1.67;;
17228;SDS011;8731;50.364;8.958;2023-07-20T23:25:50;3.10;;;2.00;;
17228;SDS011;8731;50.364;8.958;2023-07-20T23:30:14;3.30;;;1.77;;
17228;SDS011;8731;50.364;8.958;2023-07-20T23:34:39;2.83;;;1.90;;
17228;SDS011;8731;50.364;8.958;2023-07-20T23:39:02;2.37;;;1.80;;
17228;SDS011;8731;50.364;8.958;2023-07-20T23:43:25;2.00;;;1.90;;
17228;SDS011;8731;50.364;8.958;2023-07-20T23:47:48;2.07;;;1.70;;
17228;SDS011;8731;50.364;8.958;2023-07-20T23:52:12;3.27;;;1.90;;
17228;SDS011;8731;50.364;8.958;2023-07-20T23:56:38;2.67;;;1.90;;
